createdAt,value
2017-07-25T00:00:16.031Z,0
2017-07-25T00:01:16.032Z,0
2017-07-25T00:02:15.512Z,0
2017-07-25T00:03:16.015Z,0
2017-07-25T00:04:16.111Z,0
2017-07-25T00:05:15.706Z,0
2017-07-25T00:06:15.810Z,0
2017-07-25T00:07:16.203Z,0
2017-07-25T00:08:16.008Z,0
2017-07-25T00:09:15.992Z,0
2017-07-25T00:10:15.386Z,0
2017-07-25T00:11:15.990Z,0
2017-07-25T00:12:15.985Z,0
2017-07-25T00:13:15.983Z,0
2017-07-25T00:14:15.978Z,0
2017-07-25T00:15:15.972Z,0
2017-07-25T00:16:15.967Z,0
2017-07-25T00:17:15.665Z,0
2017-07-25T00:18:15.974Z,0
2017-07-25T00:19:15.964Z,0
2017-07-25T00:20:15.954Z,0
2017-07-25T00:21:15.958Z,0
2017-07-25T00:22:15.959Z,0
2017-07-25T00:23:15.948Z,0
2017-07-25T00:24:16.096Z,0
2017-07-25T00:25:15.939Z,0
2017-07-25T00:26:16.139Z,0
2017-07-25T00:27:15.328Z,0
2017-07-25T00:28:15.933Z,0
2017-07-25T00:29:15.930Z,0
2017-07-25T00:30:15.924Z,0
2017-07-25T00:31:15.624Z,0
2017-07-25T00:32:15.610Z,0
2017-07-25T00:33:15.912Z,0
2017-07-25T00:34:15.613Z,0
2017-07-25T00:35:15.912Z,0
2017-07-25T00:36:15.915Z,0
2017-07-25T00:37:15.901Z,0
2017-07-25T00:38:15.893Z,0
2017-07-25T00:39:15.896Z,0
2017-07-25T00:40:15.888Z,0
2017-07-25T00:41:15.982Z,0
2017-07-25T00:42:15.892Z,0
2017-07-25T00:43:15.879Z,0
2017-07-25T00:44:15.378Z,0
2017-07-25T00:45:15.877Z,0
2017-07-25T00:46:15.873Z,0
2017-07-25T00:47:15.986Z,0
2017-07-25T00:48:15.256Z,0
2017-07-25T00:49:15.860Z,0
2017-07-25T00:50:15.857Z,0
2017-07-25T00:51:15.554Z,0
2017-07-25T00:52:15.852Z,0
2017-07-25T00:53:15.949Z,0
2017-07-25T00:54:15.842Z,0
2017-07-25T00:55:15.842Z,0
2017-07-25T00:56:15.532Z,0
2017-07-25T00:57:15.935Z,0
2017-07-25T00:58:15.526Z,0
2017-07-25T00:59:15.842Z,0
2017-07-25T01:00:15.821Z,0
2017-07-25T01:01:15.927Z,0
2017-07-25T01:02:15.819Z,0
2017-07-25T01:03:15.506Z,0
2017-07-25T01:04:15.809Z,0
2017-07-25T01:05:15.499Z,0
2017-07-25T01:06:15.804Z,0
2017-07-25T01:07:15.504Z,0
2017-07-25T01:08:15.499Z,0
2017-07-25T01:09:15.801Z,0
2017-07-25T01:10:15.783Z,0
2017-07-25T01:11:15.881Z,0
2017-07-25T01:12:15.177Z,0
2017-07-25T01:13:15.880Z,0
2017-07-25T01:14:15.877Z,0
2017-07-25T01:15:15.469Z,0
2017-07-25T01:16:15.770Z,0
2017-07-25T01:17:15.792Z,0
2017-07-25T01:18:15.761Z,0
2017-07-25T01:19:15.761Z,0
2017-07-25T01:20:15.759Z,0
2017-07-25T01:21:15.751Z,0
2017-07-25T01:22:15.755Z,0
2017-07-25T01:23:15.749Z,0
2017-07-25T01:24:15.682Z,0
2017-07-25T01:25:15.836Z,0
2017-07-25T01:26:15.740Z,0
2017-07-25T01:27:15.533Z,0
2017-07-25T01:28:15.421Z,0
2017-07-25T01:29:15.830Z,0
2017-07-25T01:30:15.721Z,0
2017-07-25T01:31:15.722Z,0
2017-07-25T01:32:15.402Z,0
2017-07-25T01:33:15.710Z,0
2017-07-25T01:34:15.856Z,0
2017-07-25T01:35:15.703Z,0
2017-07-25T01:36:15.098Z,0
2017-07-25T01:37:15.704Z,0
2017-07-25T01:38:15.793Z,0
2017-07-25T01:39:15.698Z,0
2017-07-25T01:40:15.689Z,0
2017-07-25T01:41:15.382Z,0
2017-07-25T01:42:15.878Z,0
2017-07-25T01:43:15.673Z,0
2017-07-25T01:44:15.063Z,0
2017-07-25T01:45:15.664Z,0
2017-07-25T01:46:15.354Z,0
2017-07-25T01:47:15.762Z,0
2017-07-25T01:48:15.658Z,0
2017-07-25T01:49:15.652Z,0
2017-07-25T01:50:15.340Z,0
2017-07-25T01:51:15.639Z,0
2017-07-25T01:52:15.640Z,0
2017-07-25T01:53:15.738Z,0
2017-07-25T01:54:15.027Z,0
2017-07-25T01:55:15.632Z,0
2017-07-25T01:56:15.331Z,0
2017-07-25T01:57:15.624Z,0
2017-07-25T01:58:15.468Z,0
2017-07-25T01:59:15.628Z,0
2017-07-25T02:00:15.615Z,0
2017-07-25T02:01:15.629Z,0
2017-07-25T02:02:15.704Z,0
2017-07-25T02:03:15.304Z,0
2017-07-25T02:04:15.091Z,0
2017-07-25T02:05:15.289Z,0
2017-07-25T02:06:15.292Z,0
2017-07-25T02:07:15.591Z,0
2017-07-25T02:08:15.284Z,0
2017-07-25T02:09:15.582Z,0
2017-07-25T02:10:15.579Z,0
2017-07-25T02:11:15.272Z,0
2017-07-25T02:12:15.368Z,0
2017-07-25T02:13:15.566Z,0
2017-07-25T02:14:14.956Z,0
2017-07-25T02:15:14.653Z,0
2017-07-25T02:16:15.556Z,0
2017-07-25T02:17:15.660Z,0
2017-07-25T02:18:14.948Z,0
2017-07-25T02:19:15.651Z,0
2017-07-25T02:20:15.543Z,0
2017-07-25T02:21:15.544Z,0
2017-07-25T02:22:15.534Z,0
2017-07-25T02:23:15.533Z,0
2017-07-25T02:24:15.535Z,0
2017-07-25T02:25:15.533Z,0
2017-07-25T02:26:15.531Z,0
2017-07-25T02:27:15.521Z,0
2017-07-25T02:28:15.523Z,0
2017-07-25T02:29:15.518Z,0
2017-07-25T02:30:15.407Z,0
2017-07-25T02:31:15.517Z,0
2017-07-25T02:32:15.612Z,0
2017-07-25T02:33:15.500Z,0
2017-07-25T02:34:15.498Z,0
2017-07-25T02:35:15.496Z,0
2017-07-25T02:36:15.182Z,0
2017-07-25T02:37:15.493Z,0
2017-07-25T02:38:15.183Z,0
2017-07-25T02:39:15.483Z,0
2017-07-25T02:40:15.176Z,0
2017-07-25T02:41:15.269Z,0
2017-07-25T02:42:15.174Z,0
2017-07-25T02:43:15.466Z,0
2017-07-25T02:44:15.162Z,0
2017-07-25T02:45:15.155Z,0
2017-07-25T02:46:15.146Z,0
2017-07-25T02:47:15.144Z,0
2017-07-25T02:48:15.442Z,0
2017-07-25T02:49:15.143Z,0
2017-07-25T02:50:15.135Z,0
2017-07-25T02:51:15.434Z,0
2017-07-25T02:52:15.442Z,0
2017-07-25T02:53:15.431Z,0
2017-07-25T02:54:15.428Z,0
2017-07-25T02:55:15.426Z,0
2017-07-25T02:56:15.212Z,0
2017-07-25T02:57:15.413Z,0
2017-07-25T02:58:15.411Z,0
2017-07-25T02:59:15.403Z,0
2017-07-25T03:00:15.525Z,0
2017-07-25T03:01:15.555Z,0
2017-07-25T03:02:15.294Z,0
2017-07-25T03:03:15.390Z,0
2017-07-25T03:04:15.183Z,0
2017-07-25T03:05:15.389Z,0
2017-07-25T03:06:15.237Z,0
2017-07-25T03:07:15.390Z,0
2017-07-25T03:08:15.427Z,0
2017-07-25T03:09:15.469Z,0
2017-07-25T03:10:15.066Z,0
2017-07-25T03:11:15.061Z,0
2017-07-25T03:12:15.512Z,0
2017-07-25T03:13:15.357Z,0
2017-07-25T03:14:15.048Z,0
2017-07-25T03:15:15.045Z,0
2017-07-25T03:16:15.042Z,0
2017-07-25T03:17:15.139Z,0
2017-07-25T03:18:15.436Z,0
2017-07-25T03:19:15.035Z,0
2017-07-25T03:20:15.035Z,0
2017-07-25T03:21:15.328Z,0
2017-07-25T03:22:15.329Z,0
2017-07-25T03:23:15.327Z,0
2017-07-25T03:24:15.020Z,0
2017-07-25T03:25:15.318Z,0
2017-07-25T03:26:15.006Z,0
2017-07-25T03:27:15.002Z,0
2017-07-25T03:28:15.301Z,0
2017-07-25T03:29:14.998Z,4
2017-07-25T03:30:15.307Z,4
2017-07-25T03:31:15.306Z,4
2017-07-25T03:32:15.440Z,4
2017-07-25T03:33:15.291Z,8
2017-07-25T03:34:14.682Z,8
2017-07-25T03:35:15.072Z,8
2017-07-25T03:36:14.973Z,8
2017-07-25T03:37:15.269Z,12
2017-07-25T03:38:14.678Z,12
2017-07-25T03:39:15.272Z,16
2017-07-25T03:40:14.975Z,16
2017-07-25T03:41:15.257Z,20
2017-07-25T03:42:15.259Z,24
2017-07-25T03:43:15.397Z,24
2017-07-25T03:44:14.635Z,28
2017-07-25T03:45:15.038Z,32
2017-07-25T03:46:15.240Z,32
2017-07-25T03:47:15.240Z,28
2017-07-25T03:48:15.336Z,32
2017-07-25T03:49:15.226Z,40
2017-07-25T03:50:14.923Z,40
2017-07-25T03:51:15.224Z,48
2017-07-25T03:52:14.913Z,60
2017-07-25T03:53:15.413Z,64
2017-07-25T03:54:15.215Z,72
2017-07-25T03:55:15.212Z,88
2017-07-25T03:56:15.206Z,84
2017-07-25T03:57:14.901Z,96
2017-07-25T03:58:15.295Z,100
2017-07-25T03:59:15.347Z,96
2017-07-25T04:00:15.239Z,76
2017-07-25T04:01:15.204Z,72
2017-07-25T04:02:14.878Z,76
2017-07-25T04:03:15.182Z,80
2017-07-25T04:04:15.284Z,104
2017-07-25T04:05:15.179Z,112
2017-07-25T04:06:15.175Z,100
2017-07-25T04:07:14.862Z,80
2017-07-25T04:08:14.858Z,84
2017-07-25T04:09:15.147Z,68
2017-07-25T04:10:15.156Z,64
2017-07-25T04:11:15.145Z,60
2017-07-25T04:12:15.144Z,52
2017-07-25T04:13:15.143Z,52
2017-07-25T04:14:14.838Z,56
2017-07-25T04:15:15.136Z,64
2017-07-25T04:16:15.228Z,68
2017-07-25T04:17:14.822Z,72
2017-07-25T04:18:14.818Z,68
2017-07-25T04:19:14.815Z,80
2017-07-25T04:20:15.117Z,100
2017-07-25T04:21:14.805Z,84
2017-07-25T04:22:14.805Z,100
2017-07-25T04:23:15.104Z,108
2017-07-25T04:24:15.199Z,100
2017-07-25T04:25:14.792Z,92
2017-07-25T04:26:15.096Z,96
2017-07-25T04:27:15.093Z,128
2017-07-25T04:28:14.899Z,140
2017-07-25T04:29:15.094Z,168
2017-07-25T04:30:15.331Z,220
2017-07-25T04:31:15.075Z,204
2017-07-25T04:32:14.764Z,208
2017-07-25T04:33:15.068Z,204
2017-07-25T04:34:15.068Z,212
2017-07-25T04:35:14.754Z,224
2017-07-25T04:36:14.754Z,256
2017-07-25T04:37:15.054Z,232
2017-07-25T04:38:15.054Z,204
2017-07-25T04:39:15.048Z,164
2017-07-25T04:40:15.068Z,184
2017-07-25T04:41:15.042Z,204
2017-07-25T04:42:14.740Z,188
2017-07-25T04:43:15.039Z,172
2017-07-25T04:44:15.029Z,180
2017-07-25T04:45:14.722Z,188
2017-07-25T04:46:15.028Z,196
2017-07-25T04:47:14.817Z,216
2017-07-25T04:48:15.009Z,184
2017-07-25T04:49:15.008Z,160
2017-07-25T04:50:14.698Z,168
2017-07-25T04:51:15.003Z,208
2017-07-25T04:52:14.691Z,204
2017-07-25T04:53:14.692Z,272
2017-07-25T04:54:14.987Z,260
2017-07-25T04:55:14.682Z,244
2017-07-25T04:56:15.085Z,224
2017-07-25T04:57:14.982Z,204
2017-07-25T04:58:14.461Z,192
2017-07-25T04:59:14.967Z,228
2017-07-25T05:00:15.019Z,204
2017-07-25T05:01:14.966Z,156
2017-07-25T05:02:14.658Z,164
2017-07-25T05:03:14.953Z,320
2017-07-25T05:04:14.962Z,512
2017-07-25T05:05:14.642Z,684
2017-07-25T05:06:14.957Z,540
2017-07-25T05:07:14.945Z,532
2017-07-25T05:08:15.035Z,624
2017-07-25T05:09:14.634Z,704
2017-07-25T05:10:14.929Z,712
2017-07-25T05:11:14.620Z,636
2017-07-25T05:12:14.624Z,524
2017-07-25T05:13:14.927Z,464
2017-07-25T05:14:14.924Z,472
2017-07-25T05:15:15.022Z,492
2017-07-25T05:16:14.907Z,544
2017-07-25T05:17:14.610Z,548
2017-07-25T05:18:14.605Z,448
2017-07-25T05:19:14.894Z,512
2017-07-25T05:20:14.913Z,560
2017-07-25T05:21:14.991Z,456
2017-07-25T05:22:14.884Z,408
2017-07-25T05:23:14.885Z,416
2017-07-25T05:24:14.875Z,412
2017-07-25T05:25:14.989Z,488
2017-07-25T05:26:14.573Z,528
2017-07-25T05:27:14.565Z,512
2017-07-25T05:28:14.564Z,484
2017-07-25T05:29:14.863Z,500
2017-07-25T05:30:14.877Z,480
2017-07-25T05:31:14.895Z,440
2017-07-25T05:32:14.548Z,364
2017-07-25T05:33:14.539Z,304
2017-07-25T05:34:14.579Z,244
2017-07-25T05:35:14.533Z,224
2017-07-25T05:36:14.831Z,288
2017-07-25T05:37:14.937Z,356
2017-07-25T05:38:14.835Z,340
2017-07-25T05:39:14.827Z,352
2017-07-25T05:40:14.517Z,296
2017-07-25T05:41:14.635Z,264
2017-07-25T05:42:14.920Z,192
2017-07-25T05:43:14.918Z,268
2017-07-25T05:44:14.806Z,300
2017-07-25T05:45:14.811Z,196
2017-07-25T05:46:14.803Z,176
2017-07-25T05:47:14.797Z,216
2017-07-25T05:48:14.790Z,200
2017-07-25T05:49:14.791Z,224
2017-07-25T05:50:14.785Z,204
2017-07-25T05:51:14.888Z,228
2017-07-25T05:52:14.933Z,224
2017-07-25T05:53:14.776Z,240
2017-07-25T05:54:14.869Z,308
2017-07-25T05:55:14.790Z,304
2017-07-25T05:56:14.761Z,296
2017-07-25T05:57:14.763Z,288
2017-07-25T05:58:14.150Z,320
2017-07-25T05:59:14.298Z,312
2017-07-25T06:00:14.752Z,344
2017-07-25T06:01:14.746Z,352
2017-07-25T06:02:14.130Z,472
2017-07-25T06:03:14.432Z,552
2017-07-25T06:04:14.734Z,620
2017-07-25T06:05:14.730Z,608
2017-07-25T06:06:14.522Z,768
2017-07-25T06:07:14.422Z,908
2017-07-25T06:08:14.728Z,928
2017-07-25T06:09:14.717Z,1012
2017-07-25T06:10:14.960Z,980
2017-07-25T06:11:14.709Z,896
2017-07-25T06:12:14.403Z,936
2017-07-25T06:13:14.395Z,812
2017-07-25T06:14:14.398Z,800
2017-07-25T06:15:14.696Z,804
2017-07-25T06:16:14.691Z,960
2017-07-25T06:17:14.383Z,952
2017-07-25T06:18:14.791Z,1108
2017-07-25T06:19:14.685Z,1388
2017-07-25T06:20:14.368Z,1076
2017-07-25T06:21:14.362Z,1284
2017-07-25T06:22:14.667Z,1416
2017-07-25T06:23:14.663Z,1412
2017-07-25T06:24:14.360Z,1264
2017-07-25T06:25:14.051Z,1072
2017-07-25T06:26:14.355Z,940
2017-07-25T06:27:14.493Z,1128
2017-07-25T06:28:14.039Z,1080
2017-07-25T06:29:14.336Z,1104
2017-07-25T06:30:14.031Z,1472
2017-07-25T06:31:14.435Z,1744
2017-07-25T06:32:14.630Z,1992
2017-07-25T06:33:14.467Z,1924
2017-07-25T06:34:14.016Z,1548
2017-07-25T06:35:14.624Z,1660
2017-07-25T06:36:14.617Z,1840
2017-07-25T06:37:14.620Z,1560
2017-07-25T06:38:14.725Z,1440
2017-07-25T06:39:14.603Z,1568
2017-07-25T06:40:14.298Z,1788
2017-07-25T06:41:14.595Z,1872
2017-07-25T06:42:14.286Z,2000
2017-07-25T06:43:14.692Z,2204
2017-07-25T06:44:14.709Z,2144
2017-07-25T06:45:14.381Z,2668
2017-07-25T06:46:13.969Z,2924
2017-07-25T06:47:14.574Z,3232
2017-07-25T06:48:14.266Z,3560
2017-07-25T06:49:14.567Z,3560
2017-07-25T06:50:14.266Z,3560
2017-07-25T06:51:14.257Z,2580
2017-07-25T06:52:14.257Z,1540
2017-07-25T06:53:14.554Z,1576
2017-07-25T06:54:14.562Z,1744
2017-07-25T06:55:14.652Z,2204
2017-07-25T06:56:14.243Z,2956
2017-07-25T06:57:14.642Z,2980
2017-07-25T06:58:14.566Z,2040
2017-07-25T06:59:14.695Z,1260
2017-07-25T07:00:14.543Z,1164
2017-07-25T07:01:14.233Z,1300
2017-07-25T07:02:14.531Z,2392
2017-07-25T07:03:14.623Z,3248
2017-07-25T07:04:14.628Z,3064
2017-07-25T07:05:14.532Z,2440
2017-07-25T07:06:14.532Z,2776
2017-07-25T07:07:14.212Z,2792
2017-07-25T07:08:14.501Z,2968
2017-07-25T07:09:14.506Z,3584
2017-07-25T07:10:14.494Z,4036
2017-07-25T07:11:14.503Z,4196
2017-07-25T07:12:14.492Z,4500
2017-07-25T07:13:14.491Z,4680
2017-07-25T07:14:14.486Z,4460
2017-07-25T07:15:14.481Z,4032
2017-07-25T07:16:14.473Z,3896
2017-07-25T07:17:14.488Z,3556
2017-07-25T07:18:14.494Z,2916
2017-07-25T07:19:14.464Z,2588
2017-07-25T07:20:14.157Z,2492
2017-07-25T07:21:14.465Z,2160
2017-07-25T07:22:13.853Z,2064
2017-07-25T07:23:14.457Z,2384
2017-07-25T07:24:13.848Z,2648
2017-07-25T07:25:14.142Z,2836
2017-07-25T07:26:14.439Z,3008
2017-07-25T07:27:13.839Z,3028
2017-07-25T07:28:14.437Z,3048
2017-07-25T07:29:14.437Z,3080
2017-07-25T07:30:14.433Z,3088
2017-07-25T07:31:14.438Z,2664
2017-07-25T07:32:14.119Z,2232
2017-07-25T07:33:14.421Z,2148
2017-07-25T07:34:14.418Z,1960
2017-07-25T07:35:14.666Z,2396
2017-07-25T07:36:13.801Z,2480
2017-07-25T07:37:14.402Z,2636
2017-07-25T07:38:14.409Z,2936
2017-07-25T07:39:14.400Z,3020
2017-07-25T07:40:13.791Z,2980
2017-07-25T07:41:14.495Z,2716
2017-07-25T07:42:14.397Z,2040
2017-07-25T07:43:14.390Z,1732
2017-07-25T07:44:14.385Z,1828
2017-07-25T07:45:14.175Z,1748
2017-07-25T07:46:14.381Z,1456
2017-07-25T07:47:14.380Z,1128
2017-07-25T07:48:13.764Z,1076
2017-07-25T07:49:14.062Z,1184
2017-07-25T07:50:14.375Z,976
2017-07-25T07:51:14.364Z,1028
2017-07-25T07:52:14.360Z,1040
2017-07-25T07:53:14.357Z,1076
2017-07-25T07:54:14.050Z,1028
2017-07-25T07:55:14.046Z,1128
2017-07-25T07:56:14.190Z,928
2017-07-25T07:57:14.039Z,636
2017-07-25T07:58:14.036Z,756
2017-07-25T07:59:14.340Z,824
2017-07-25T08:00:14.334Z,832
2017-07-25T08:01:14.332Z,808
2017-07-25T08:02:13.814Z,784
2017-07-25T08:03:14.321Z,776
2017-07-25T08:04:14.318Z,776
2017-07-25T08:05:14.361Z,880
2017-07-25T08:06:14.315Z,1120
2017-07-25T08:07:14.313Z,1428
2017-07-25T08:08:14.305Z,1644
2017-07-25T08:09:13.995Z,1760
2017-07-25T08:10:13.994Z,1796
2017-07-25T08:11:14.323Z,1424
2017-07-25T08:12:14.292Z,1152
2017-07-25T08:13:14.292Z,712
2017-07-25T08:14:14.290Z,552
2017-07-25T08:15:14.280Z,604
2017-07-25T08:16:14.275Z,976
2017-07-25T08:17:13.963Z,1716
2017-07-25T08:18:14.368Z,2420
2017-07-25T08:19:14.268Z,2388
2017-07-25T08:20:14.270Z,2240
2017-07-25T08:21:13.953Z,2624
2017-07-25T08:22:13.956Z,3292
2017-07-25T08:23:14.258Z,2764
2017-07-25T08:24:14.263Z,3044
2017-07-25T08:25:14.246Z,3868
2017-07-25T08:26:14.285Z,3908
2017-07-25T08:27:14.245Z,4076
2017-07-25T08:28:13.936Z,4232
2017-07-25T08:29:14.241Z,4276
2017-07-25T08:30:13.617Z,4148
2017-07-25T08:31:14.220Z,3964
2017-07-25T08:32:13.618Z,3788
2017-07-25T08:33:14.221Z,3544
2017-07-25T08:34:14.319Z,3424
2017-07-25T08:35:14.207Z,3280
2017-07-25T08:36:14.217Z,3552
2017-07-25T08:37:14.205Z,3736
2017-07-25T08:38:13.899Z,3652
2017-07-25T08:39:14.296Z,3604
2017-07-25T08:40:14.195Z,3624
2017-07-25T08:41:14.187Z,3684
2017-07-25T08:42:13.890Z,3548
2017-07-25T08:43:14.186Z,3620
2017-07-25T08:44:13.880Z,3724
2017-07-25T08:45:14.285Z,3568
2017-07-25T08:46:14.181Z,3616
2017-07-25T08:47:13.865Z,4096
2017-07-25T08:48:14.172Z,4348
2017-07-25T08:49:14.164Z,3732
2017-07-25T08:50:14.162Z,3508
2017-07-25T08:51:14.154Z,4272
2017-07-25T08:52:14.156Z,4944
2017-07-25T08:53:14.157Z,4672
2017-07-25T08:54:13.846Z,4540
2017-07-25T08:55:14.140Z,4880
2017-07-25T08:56:14.251Z,5240
2017-07-25T08:57:14.148Z,5084
2017-07-25T08:58:14.237Z,4724
2017-07-25T08:59:14.137Z,4492
2017-07-25T09:00:14.136Z,4380
2017-07-25T09:01:13.947Z,3540
2017-07-25T09:02:14.123Z,2856
2017-07-25T09:03:14.123Z,2000
2017-07-25T09:04:14.123Z,1372
2017-07-25T09:05:14.115Z,1524
2017-07-25T09:06:14.122Z,1332
2017-07-25T09:07:14.109Z,1036
2017-07-25T09:08:13.901Z,1048
2017-07-25T09:09:14.099Z,1416
2017-07-25T09:10:14.107Z,2136
2017-07-25T09:11:14.099Z,2172
2017-07-25T09:12:14.092Z,2128
2017-07-25T09:13:14.090Z,1680
2017-07-25T09:14:14.081Z,1828
2017-07-25T09:15:14.223Z,1788
2017-07-25T09:16:14.233Z,3380
2017-07-25T09:17:14.074Z,4244
2017-07-25T09:18:13.771Z,4364
2017-07-25T09:19:14.072Z,4176
2017-07-25T09:20:14.078Z,3256
2017-07-25T09:21:14.171Z,2480
2017-07-25T09:22:13.754Z,2188
2017-07-25T09:23:14.060Z,2028
2017-07-25T09:24:13.749Z,2000
2017-07-25T09:25:13.755Z,2068
2017-07-25T09:26:14.229Z,2156
2017-07-25T09:27:13.745Z,2044
2017-07-25T09:28:13.736Z,1868
2017-07-25T09:29:13.742Z,1716
2017-07-25T09:30:14.089Z,1700
2017-07-25T09:31:14.179Z,1808
2017-07-25T09:32:14.037Z,2016
2017-07-25T09:33:14.032Z,2264
2017-07-25T09:34:14.132Z,2736
2017-07-25T09:35:14.121Z,3204
2017-07-25T09:36:14.016Z,3180
2017-07-25T09:37:14.010Z,3140
2017-07-25T09:38:13.708Z,3092
2017-07-25T09:39:14.011Z,4036
2017-07-25T09:40:13.695Z,4248
2017-07-25T09:41:13.689Z,4800
2017-07-25T09:42:13.891Z,5540
2017-07-25T09:43:14.002Z,5716
2017-07-25T09:44:13.995Z,4848
2017-07-25T09:45:14.114Z,3608
2017-07-25T09:46:13.980Z,2756
2017-07-25T09:47:14.130Z,2392
2017-07-25T09:48:13.982Z,2208
2017-07-25T09:49:13.983Z,2116
2017-07-25T09:50:13.667Z,1952
2017-07-25T09:51:13.964Z,1792
2017-07-25T09:52:14.114Z,1860
2017-07-25T09:53:13.954Z,2004
2017-07-25T09:54:13.960Z,2008
2017-07-25T09:55:13.956Z,1964
2017-07-25T09:56:13.657Z,1616
2017-07-25T09:57:14.201Z,1396
2017-07-25T09:58:13.944Z,1488
2017-07-25T09:59:13.945Z,2164
2017-07-25T10:00:13.935Z,2600
2017-07-25T10:01:13.934Z,3268
2017-07-25T10:02:13.628Z,3744
2017-07-25T10:03:14.079Z,3036
2017-07-25T10:04:13.923Z,2652
2017-07-25T10:05:13.615Z,2508
2017-07-25T10:06:13.915Z,2284
2017-07-25T10:07:13.611Z,2288
2017-07-25T10:08:14.019Z,2584
2017-07-25T10:09:13.911Z,2548
2017-07-25T10:10:13.603Z,2232
2017-07-25T10:11:13.599Z,1684
2017-07-25T10:12:13.902Z,1292
2017-07-25T10:13:13.991Z,920
2017-07-25T10:14:13.893Z,988
2017-07-25T10:15:13.885Z,1128
2017-07-25T10:16:13.897Z,1172
2017-07-25T10:17:13.886Z,1216
2017-07-25T10:18:13.881Z,1344
2017-07-25T10:19:13.870Z,1668
2017-07-25T10:20:14.025Z,2196
2017-07-25T10:21:14.021Z,2944
2017-07-25T10:22:13.870Z,3608
2017-07-25T10:23:13.883Z,4144
2017-07-25T10:24:13.671Z,4668
2017-07-25T10:25:13.859Z,5148
2017-07-25T10:26:13.547Z,5508
2017-07-25T10:27:13.943Z,5292
2017-07-25T10:28:13.540Z,4756
2017-07-25T10:29:13.845Z,4468
2017-07-25T10:30:13.841Z,4208
2017-07-25T10:31:13.850Z,3596
2017-07-25T10:32:13.534Z,2600
2017-07-25T10:33:13.524Z,1856
2017-07-25T10:34:13.222Z,1680
2017-07-25T10:35:13.825Z,1220
2017-07-25T10:36:14.020Z,776
2017-07-25T10:37:13.817Z,632
2017-07-25T10:38:13.808Z,772
2017-07-25T10:39:13.904Z,1236
2017-07-25T10:40:13.503Z,1376
2017-07-25T10:41:13.905Z,1424
2017-07-25T10:42:13.802Z,1312
2017-07-25T10:43:13.796Z,1240
2017-07-25T10:44:13.937Z,1416
2017-07-25T10:45:13.788Z,1364
2017-07-25T10:46:13.891Z,1152
2017-07-25T10:47:13.780Z,1008
2017-07-25T10:48:13.575Z,964
2017-07-25T10:49:13.773Z,960
2017-07-25T10:50:13.169Z,884
2017-07-25T10:51:13.461Z,1000
2017-07-25T10:52:13.782Z,1256
2017-07-25T10:53:13.766Z,1552
2017-07-25T10:54:13.758Z,2844
2017-07-25T10:55:13.752Z,3720
2017-07-25T10:56:13.449Z,3352
2017-07-25T10:57:13.751Z,3160
2017-07-25T10:58:13.130Z,2848
2017-07-25T10:59:13.137Z,2680
2017-07-25T11:00:13.744Z,2564
2017-07-25T11:01:13.742Z,2488
2017-07-25T11:02:13.430Z,2408
2017-07-25T11:03:13.732Z,2200
2017-07-25T11:04:13.423Z,2228
2017-07-25T11:05:13.735Z,2936
2017-07-25T11:06:13.719Z,3692
2017-07-25T11:07:13.418Z,4392
2017-07-25T11:08:13.708Z,4436
2017-07-25T11:09:13.410Z,3328
2017-07-25T11:10:13.408Z,2680
2017-07-25T11:11:13.711Z,2268
2017-07-25T11:12:13.095Z,2036
2017-07-25T11:13:13.692Z,1784
2017-07-25T11:14:13.691Z,1688
2017-07-25T11:15:13.431Z,1488
2017-07-25T11:16:13.686Z,1364
2017-07-25T11:17:13.685Z,1288
2017-07-25T11:18:13.675Z,1356
2017-07-25T11:19:13.683Z,1480
2017-07-25T11:20:13.068Z,1632
2017-07-25T11:21:13.465Z,1828
2017-07-25T11:22:13.362Z,2168
2017-07-25T11:23:13.357Z,2680
2017-07-25T11:24:13.762Z,2968
2017-07-25T11:25:13.662Z,3100
2017-07-25T11:26:13.345Z,3052
2017-07-25T11:27:13.753Z,3040
2017-07-25T11:28:13.800Z,3092
2017-07-25T11:29:13.641Z,3220
2017-07-25T11:30:13.034Z,3428
2017-07-25T11:31:13.634Z,3516
2017-07-25T11:32:13.332Z,3912
2017-07-25T11:33:13.710Z,4576
2017-07-25T11:34:13.425Z,4896
2017-07-25T11:35:13.629Z,5312
2017-07-25T11:36:13.613Z,5052
2017-07-25T11:37:13.625Z,4392
2017-07-25T11:38:13.310Z,3732
2017-07-25T11:39:13.765Z,3236
2017-07-25T11:40:13.303Z,2756
2017-07-25T11:41:13.302Z,2448
2017-07-25T11:42:13.598Z,2464
2017-07-25T11:43:13.600Z,3236
2017-07-25T11:44:13.600Z,4116
2017-07-25T11:45:13.609Z,4836
2017-07-25T11:46:13.589Z,5260
2017-07-25T11:47:13.683Z,5484
2017-07-25T11:48:13.682Z,5684
2017-07-25T11:49:13.684Z,5880
2017-07-25T11:50:13.266Z,6012
2017-07-25T11:51:13.269Z,6384
2017-07-25T11:52:13.267Z,6548
2017-07-25T11:53:13.570Z,6504
2017-07-25T11:54:13.566Z,5948
2017-07-25T11:55:13.667Z,5160
2017-07-25T11:56:13.553Z,4696
2017-07-25T11:57:13.561Z,4700
2017-07-25T11:58:13.247Z,5052
2017-07-25T11:59:13.247Z,5416
2017-07-25T12:00:13.243Z,5696
2017-07-25T12:01:13.544Z,5796
2017-07-25T12:02:13.642Z,5836
2017-07-25T12:03:12.930Z,5800
2017-07-25T12:04:13.230Z,4988
2017-07-25T12:05:13.429Z,3968
2017-07-25T12:06:13.224Z,3348
2017-07-25T12:07:13.531Z,3080
2017-07-25T12:08:12.913Z,2772
2017-07-25T12:09:13.518Z,2604
2017-07-25T12:10:13.366Z,2608
2017-07-25T12:11:13.620Z,2384
2017-07-25T12:12:13.511Z,1960
2017-07-25T12:13:13.209Z,1584
2017-07-25T12:14:13.204Z,1360
2017-07-25T12:15:13.674Z,1204
2017-07-25T12:16:13.606Z,1052
2017-07-25T12:17:13.192Z,928
2017-07-25T12:18:13.500Z,840
2017-07-25T12:19:13.189Z,796
2017-07-25T12:20:13.181Z,752
2017-07-25T12:21:13.179Z,780
2017-07-25T12:22:13.480Z,820
2017-07-25T12:23:13.274Z,860
2017-07-25T12:24:13.473Z,948
2017-07-25T12:25:13.531Z,1292
2017-07-25T12:26:13.574Z,2064
2017-07-25T12:27:13.466Z,2632
2017-07-25T12:28:13.460Z,2916
2017-07-25T12:29:13.490Z,3128
2017-07-25T12:30:13.459Z,3216
2017-07-25T12:31:13.153Z,3456
2017-07-25T12:32:13.149Z,3740
2017-07-25T12:33:13.449Z,4212
2017-07-25T12:34:13.543Z,4644
2017-07-25T12:35:13.440Z,4988
2017-07-25T12:36:13.454Z,5284
2017-07-25T12:37:13.436Z,5456
2017-07-25T12:38:12.930Z,5688
2017-07-25T12:39:13.430Z,5652
2017-07-25T12:40:13.122Z,5540
2017-07-25T12:41:13.421Z,5428
2017-07-25T12:42:13.421Z,5356
2017-07-25T12:43:13.423Z,5408
2017-07-25T12:44:13.404Z,5140
2017-07-25T12:45:13.415Z,5056
2017-07-25T12:46:13.103Z,4800
2017-07-25T12:47:13.507Z,4688
2017-07-25T12:48:13.104Z,4440
2017-07-25T12:49:13.424Z,4288
2017-07-25T12:50:13.220Z,4340
2017-07-25T12:51:13.389Z,4584
2017-07-25T12:52:13.393Z,4464
2017-07-25T12:53:13.382Z,4440
2017-07-25T12:54:13.534Z,4268
2017-07-25T12:55:13.384Z,4020
2017-07-25T12:56:13.379Z,4004
2017-07-25T12:57:13.375Z,4028
2017-07-25T12:58:13.469Z,4152
2017-07-25T12:59:13.368Z,4356
2017-07-25T13:00:13.363Z,4544
2017-07-25T13:01:13.372Z,4432
2017-07-25T13:02:13.354Z,4460
2017-07-25T13:03:13.049Z,4436
2017-07-25T13:04:13.501Z,4416
2017-07-25T13:05:13.460Z,4340
2017-07-25T13:06:12.742Z,4420
2017-07-25T13:07:13.349Z,4516
2017-07-25T13:08:13.351Z,4384
2017-07-25T13:09:13.496Z,4344
2017-07-25T13:10:13.034Z,3980
2017-07-25T13:11:13.338Z,3724
2017-07-25T13:12:13.333Z,3896
2017-07-25T13:13:13.334Z,3896
2017-07-25T13:14:13.332Z,3824
2017-07-25T13:15:13.023Z,3700
2017-07-25T13:16:13.314Z,4040
2017-07-25T13:17:13.318Z,4340
2017-07-25T13:18:13.315Z,3964
2017-07-25T13:19:13.312Z,3636
2017-07-25T13:20:13.002Z,3280
2017-07-25T13:21:13.304Z,2988
2017-07-25T13:22:13.308Z,2784
2017-07-25T13:23:13.409Z,2556
2017-07-25T13:24:13.306Z,2256
2017-07-25T13:25:13.296Z,1972
2017-07-25T13:26:12.687Z,1644
2017-07-25T13:27:13.394Z,1332
2017-07-25T13:28:12.982Z,1068
2017-07-25T13:29:13.434Z,924
2017-07-25T13:30:13.280Z,892
2017-07-25T13:31:13.279Z,912
2017-07-25T13:32:12.979Z,1032
2017-07-25T13:33:12.977Z,1196
2017-07-25T13:34:13.276Z,1452
2017-07-25T13:35:13.267Z,1688
2017-07-25T13:36:12.961Z,1800
2017-07-25T13:37:13.067Z,2156
2017-07-25T13:38:13.260Z,2600
2017-07-25T13:39:13.255Z,2756
2017-07-25T13:40:13.255Z,2680
2017-07-25T13:41:13.246Z,2232
2017-07-25T13:42:13.241Z,1952
2017-07-25T13:43:13.262Z,1992
2017-07-25T13:44:13.345Z,1740
2017-07-25T13:45:13.236Z,1404
2017-07-25T13:46:13.027Z,1112
2017-07-25T13:47:13.229Z,936
2017-07-25T13:48:13.227Z,800